sensor_id;sensor_type;location;lat;lon;timestamp;pressure;altitude;pressure_sealevel;temperature;humidity
39449;BME280;25151;45.566;9.382;2022-07-23T00:01:44;99645.53;;;29.23;41.23
39449;BME280;25151;45.566;9.382;2022-07-23T00:04:45;99645.53;;;29.23;40.82
39449;BME280;25151;45.566;9.382;2022-07-23T00:07:45;99642.16;;;29.25;41.26
39449;BME280;25151;45.566;9.382;2022-07-23T00:10:46;99641.66;;;29.26;41.20
39449;BME280;25151;45.566;9.382;2022-07-23T00:13:47;99649.38;;;29.26;40.97
39449;BME280;25151;45.566;9.382;2022-07-23T00:16:48;99641.66;;;29.26;41.00
39449;BME280;25151;45.566;9.382;2022-07-23T00:19:48;99627.97;;;29.25;41.38
39449;BME280;25151;45.566;9.382;2022-07-23T00:22:50;99616.88;;;29.27;41.23
39449;BME280;25151;45.566;9.382;2022-07-23T00:25:51;99613.28;;;29.26;41.18
39449;BME280;25151;45.566;9.382;2022-07-23T00:28:52;99597.25;;;29.23;40.91
39449;BME280;25151;45.566;9.382;2022-07-23T00:31:52;99590.56;;;29.26;40.95
39449;BME280;25151;45.566;9.382;2022-07-23T00:34:53;99580.75;;;29.27;41.13
39449;BME280;25151;45.566;9.382;2022-07-23T00:37:55;99575.56;;;29.26;41.17
39449;BME280;25151;45.566;9.382;2022-07-23T00:40:56;99569.09;;;29.25;41.69
39449;BME280;25151;45.566;9.382;2022-07-23T00:44:20;99564.47;;;29.28;41.56
39449;BME280;25151;45.566;9.382;2022-07-23T00:47:21;99562.16;;;29.26;41.25
39449;BME280;25151;45.566;9.382;2022-07-23T00:50:23;99568.59;;;29.27;41.46
39449;BME280;25151;45.566;9.382;2022-07-23T00:53:24;99572.72;;;29.26;41.57
39449;BME280;25151;45.566;9.382;2022-07-23T00:56:25;99581.50;;;29.28;41.36
39449;BME280;25151;45.566;9.382;2022-07-23T00:59:26;99590.81;;;29.28;41.42
39449;BME280;25151;45.566;9.382;2022-07-23T01:02:27;99594.94;;;29.27;41.19
39449;BME280;25151;45.566;9.382;2022-07-23T01:05:28;99612.75;;;29.28;41.62
39449;BME280;25151;45.566;9.382;2022-07-23T01:08:29;99615.59;;;29.28;41.80
39449;BME280;25151;45.566;9.382;2022-07-23T01:11:30;99625.66;;;29.29;41.55
39449;BME280;25151;45.566;9.382;2022-07-23T01:14:31;99627.72;;;29.28;41.31
39449;BME280;25151;45.566;9.382;2022-07-23T01:17:32;99613.53;;;29.28;41.36
39449;BME280;25151;45.566;9.382;2022-07-23T01:20:33;99616.34;;;29.28;41.77
39449;BME280;25151;45.566;9.382;2022-07-23T01:23:33;99620.50;;;29.27;41.66
39449;BME280;25151;45.566;9.382;2022-07-23T01:26:35;99628.50;;;29.29;41.77
39449;BME280;25151;45.566;9.382;2022-07-23T01:29:35;99616.34;;;29.28;41.48
39449;BME280;25151;45.566;9.382;2022-07-23T01:32:36;99621.25;;;29.28;41.98
39449;BME280;25151;45.566;9.382;2022-07-23T01:35:37;99617.91;;;29.29;41.72
39449;BME280;25151;45.566;9.382;2022-07-23T01:38:37;99623.56;;;29.29;41.48
39449;BME280;25151;45.566;9.382;2022-07-23T01:41:38;99617.91;;;29.29;41.83
39449;BME280;25151;45.566;9.382;2022-07-23T01:44:38;99621.78;;;29.26;41.56
39449;BME280;25151;45.566;9.382;2022-07-23T01:47:39;99616.34;;;29.28;41.68
39449;BME280;25151;45.566;9.382;2022-07-23T01:50:40;99609.38;;;29.29;41.68
39449;BME280;25151;45.566;9.382;2022-07-23T01:53:40;99610.94;;;29.30;41.46
39449;BME280;25151;45.566;9.382;2022-07-23T01:56:42;99610.69;;;29.28;42.00
39449;BME280;25151;45.566;9.382;2022-07-23T01:59:44;99605.00;;;29.28;41.91
39449;BME280;25151;45.566;9.382;2022-07-23T02:02:45;99617.91;;;29.29;41.61
39449;BME280;25151;45.566;9.382;2022-07-23T02:05:45;99615.81;;;29.30;41.97
39449;BME280;25151;45.566;9.382;2022-07-23T02:08:46;99623.56;;;29.29;41.72
39449;BME280;25151;45.566;9.382;2022-07-23T02:11:47;99628.50;;;29.29;41.62
39449;BME280;25151;45.566;9.382;2022-07-23T02:14:47;99626.41;;;29.29;41.91
39449;BME280;25151;45.566;9.382;2022-07-23T02:17:48;99631.59;;;29.31;41.92
39449;BME280;25151;45.566;9.382;2022-07-23T02:20:49;99630.03;;;29.30;41.84
39449;BME280;25151;45.566;9.382;2022-07-23T02:23:50;99621.00;;;29.31;42.06
39449;BME280;25151;45.566;9.382;2022-07-23T02:26:50;99617.91;;;29.29;42.32
39449;BME280;25151;45.566;9.382;2022-07-23T02:29:51;99628.75;;;29.31;42.30
39449;BME280;25151;45.566;9.382;2022-07-23T02:32:51;99625.16;;;29.30;42.15
39449;BME280;25151;45.566;9.382;2022-07-23T02:35:52;99624.63;;;29.32;42.42
39449;BME280;25151;45.566;9.382;2022-07-23T02:38:54;99616.88;;;29.32;42.19
39449;BME280;25151;45.566;9.382;2022-07-23T02:41:55;99609.66;;;29.31;42.20
39449;BME280;25151;45.566;9.382;2022-07-23T02:44:56;99614.03;;;29.32;42.33
39449;BME280;25151;45.566;9.382;2022-07-23T02:47:56;99613.78;;;29.30;42.33
39449;BME280;25151;45.566;9.382;2022-07-23T02:50:57;99621.78;;;29.32;42.36
39449;BME280;25151;45.566;9.382;2022-07-23T02:53:58;99609.13;;;29.33;42.24
39449;BME280;25151;45.566;9.382;2022-07-23T02:56:58;99607.59;;;29.32;42.54
39449;BME280;25151;45.566;9.382;2022-07-23T02:59:59;99608.34;;;29.32;42.55
39449;BME280;25151;45.566;9.382;2022-07-23T03:03:00;99605.50;;;29.32;42.54
39449;BME280;25151;45.566;9.382;2022-07-23T03:06:00;99614.03;;;29.32;42.62
39449;BME280;25151;45.566;9.382;2022-07-23T03:09:02;99612.50;;;29.31;42.61
39449;BME280;25151;45.566;9.382;2022-07-23T03:12:03;99620.47;;;29.33;42.41
39449;BME280;25151;45.566;9.382;2022-07-23T03:15:04;99622.56;;;29.32;42.54
39449;BME280;25151;45.566;9.382;2022-07-23T03:18:05;99623.31;;;29.33;42.62
39449;BME280;25151;45.566;9.382;2022-07-23T03:21:06;99620.25;;;29.31;42.75
39449;BME280;25151;45.566;9.382;2022-07-23T03:24:08;99621.25;;;29.33;42.44
39449;BME280;25151;45.566;9.382;2022-07-23T03:27:10;99618.41;;;29.33;42.77
39449;BME280;25151;45.566;9.382;2022-07-23T03:30:11;99618.41;;;29.33;42.64
39449;BME280;25151;45.566;9.382;2022-07-23T03:33:13;99616.88;;;29.32;42.53
39449;BME280;25151;45.566;9.382;2022-07-23T03:36:14;99613.50;;;29.34;42.76
39449;BME280;25151;45.566;9.382;2022-07-23T03:39:15;99614.81;;;29.33;42.81
39449;BME280;25151;45.566;9.382;2022-07-23T03:42:15;99617.66;;;29.33;42.92
39449;BME280;25151;45.566;9.382;2022-07-23T03:45:16;99622.81;;;29.34;42.63
39449;BME280;25151;45.566;9.382;2022-07-23T03:48:17;99637.78;;;29.35;42.86
39449;BME280;25151;45.566;9.382;2022-07-23T03:51:17;99637.78;;;29.35;42.69
39449;BME280;25151;45.566;9.382;2022-07-23T03:54:18;99651.44;;;29.14;43.03
39449;BME280;25151;45.566;9.382;2022-07-23T03:57:18;99640.06;;;28.97;42.16
39449;BME280;25151;45.566;9.382;2022-07-23T04:00:19;99650.78;;;28.71;42.26
39449;BME280;25151;45.566;9.382;2022-07-23T04:03:20;99657.25;;;28.71;41.67
39449;BME280;25151;45.566;9.382;2022-07-23T04:06:20;99647.69;;;28.63;41.78
39449;BME280;25151;45.566;9.382;2022-07-23T04:09:21;99644.31;;;28.59;41.38
39449;BME280;25151;45.566;9.382;2022-07-23T04:12:23;99641.47;;;28.59;41.19
39449;BME280;25151;45.566;9.382;2022-07-23T04:15:24;99643.75;;;28.55;41.07
39449;BME280;25151;45.566;9.382;2022-07-23T04:18:25;99644.78;;;28.52;41.38
39449;BME280;25151;45.566;9.382;2022-07-23T04:21:26;99645.03;;;28.54;41.12
39449;BME280;25151;45.566;9.382;2022-07-23T04:24:26;99645.56;;;28.58;41.25
39449;BME280;25151;45.566;9.382;2022-07-23T04:27:27;99651.72;;;28.51;40.83
39449;BME280;25151;45.566;9.382;2022-07-23T04:30:28;99653.53;;;28.48;40.85
39449;BME280;25151;45.566;9.382;2022-07-23T04:33:28;99650.97;;;28.50;40.87
39449;BME280;25151;45.566;9.382;2022-07-23T04:36:31;99647.88;;;28.54;41.10
39449;BME280;25151;45.566;9.382;2022-07-23T04:39:31;99639.06;;;28.40;40.94
39449;BME280;25151;45.566;9.382;2022-07-23T04:42:32;99626.19;;;28.45;40.67
39449;BME280;25151;45.566;9.382;2022-07-23T04:45:34;99631.09;;;28.45;40.35
39449;BME280;25151;45.566;9.382;2022-07-23T04:48:35;99629.56;;;28.43;40.14
39449;BME280;25151;45.566;9.382;2022-07-23T04:51:36;99624.41;;;28.48;40.30
39449;BME280;25151;45.566;9.382;2022-07-23T04:54:37;99624.34;;;28.36;40.15
39449;BME280;25151;45.566;9.382;2022-07-23T04:57:37;99625.41;;;28.45;40.05
39449;BME280;25151;45.566;9.382;2022-07-23T05:00:41;99631.56;;;28.37;39.83
39449;BME280;25151;45.566;9.382;2022-07-23T05:03:41;99624.13;;;28.40;40.09
39449;BME280;25151;45.566;9.382;2022-07-23T05:06:44;99622.53;;;28.39;39.79
39449;BME280;25151;45.566;9.382;2022-07-23T05:09:44;99627.91;;;28.31;39.74
39449;BME280;25151;45.566;9.382;2022-07-23T05:12:45;99627.38;;;28.27;39.97
39449;BME280;25151;45.566;9.382;2022-07-23T05:15:46;99629.47;;;28.32;39.68
39449;BME280;25151;45.566;9.382;2022-07-23T05:22:13;99623.78;;;28.32;39.36
39449;BME280;25151;45.566;9.382;2022-07-23T05:25:23;99640.81;;;28.32;39.32
39449;BME280;25151;45.566;9.382;2022-07-23T05:28:24;99640.81;;;28.32;39.17
39449;BME280;25151;45.566;9.382;2022-07-23T05:31:25;99657.09;;;28.37;39.04
39449;BME280;25151;45.566;9.382;2022-07-23T05:34:43;99660.91;;;28.34;39.27
39449;BME280;25151;45.566;9.382;2022-07-23T05:37:49;99662.75;;;28.37;39.47
39449;BME280;25151;45.566;9.382;2022-07-23T05:40:53;99662.47;;;28.35;39.11
39449;BME280;25151;45.566;9.382;2022-07-23T05:44:01;99669.72;;;28.36;39.16
39449;BME280;25151;45.566;9.382;2022-07-23T05:47:02;99668.63;;;28.34;39.32
39449;BME280;25151;45.566;9.382;2022-07-23T05:50:04;99668.72;;;28.39;39.42
39449;BME280;25151;45.566;9.382;2022-07-23T05:53:27;99683.34;;;28.32;39.32
39449;BME280;25151;45.566;9.382;2022-07-23T05:56:28;99683.06;;;28.30;39.11
39449;BME280;25151;45.566;9.382;2022-07-23T05:59:29;99687.72;;;28.33;39.00
39449;BME280;25151;45.566;9.382;2022-07-23T06:02:30;99689.78;;;28.33;39.12
39449;BME280;25151;45.566;9.382;2022-07-23T06:05:38;99691.06;;;28.32;39.17
39449;BME280;25151;45.566;9.382;2022-07-23T06:08:39;99693.38;;;28.33;39.06
39449;BME280;25151;45.566;9.382;2022-07-23T06:11:40;99696.44;;;28.24;39.02
39449;BME280;25151;45.566;9.382;2022-07-23T06:14:41;99709.88;;;28.29;39.03
39449;BME280;25151;45.566;9.382;2022-07-23T06:17:45;99701.09;;;28.27;39.29
39449;BME280;25151;45.566;9.382;2022-07-23T06:20:46;99708.56;;;28.25;39.09
39449;BME280;25151;45.566;9.382;2022-07-23T06:23:47;99709.03;;;28.23;39.32
39449;BME280;25151;45.566;9.382;2022-07-23T06:26:51;99704.97;;;28.30;39.09
39449;BME280;25151;45.566;9.382;2022-07-23T06:29:52;99702.66;;;28.28;38.98
39449;BME280;25151;45.566;9.382;2022-07-23T06:32:54;99708.00;;;28.21;38.97
39449;BME280;25151;45.566;9.382;2022-07-23T06:36:20;99703.38;;;28.23;39.12
39449;BME280;25151;45.566;9.382;2022-07-23T06:47:23;99694.09;;;28.23;38.77
39449;BME280;25151;45.566;9.382;2022-07-23T06:58:28;99704.63;;;28.16;38.66
39449;BME280;25151;45.566;9.382;2022-07-23T07:01:30;99706.19;;;28.23;38.39
39449;BME280;25151;45.566;9.382;2022-07-23T07:04:31;99711.34;;;28.19;38.26
39449;BME280;25151;45.566;9.382;2022-07-23T07:07:33;99710.53;;;28.13;38.44
39449;BME280;25151;45.566;9.382;2022-07-23T07:10:45;99713.91;;;28.17;38.08
39449;BME280;25151;45.566;9.382;2022-07-23T07:22:01;99716.72;;;28.11;38.00
39449;BME280;25151;45.566;9.382;2022-07-23T07:33:33;99730.63;;;28.15;37.66
39449;BME280;25151;45.566;9.382;2022-07-23T07:36:34;99731.19;;;28.19;37.45
39449;BME280;25151;45.566;9.382;2022-07-23T07:39:40;99729.16;;;28.19;37.58
39449;BME280;25151;45.566;9.382;2022-07-23T07:42:47;99729.59;;;28.12;37.08
39449;BME280;25151;45.566;9.382;2022-07-23T07:45:48;99725.22;;;28.11;36.91
39449;BME280;25151;45.566;9.382;2022-07-23T07:48:50;99717.44;;;28.06;36.83
39449;BME280;25151;45.566;9.382;2022-07-23T07:51:51;99723.63;;;28.05;36.62
39449;BME280;25151;45.566;9.382;2022-07-23T07:54:52;99719.19;;;27.98;36.50
39449;BME280;25151;45.566;9.382;2022-07-23T07:57:53;99724.63;;;28.02;36.14
39449;BME280;25151;45.566;9.382;2022-07-23T08:01:00;99725.72;;;28.10;36.00
39449;BME280;25151;45.566;9.382;2022-07-23T08:04:02;99722.63;;;28.08;35.67
39449;BME280;25151;45.566;9.382;2022-07-23T08:07:03;99730.09;;;28.11;35.62
39449;BME280;25151;45.566;9.382;2022-07-23T08:10:05;99729.09;;;28.14;35.50
39449;BME280;25151;45.566;9.382;2022-07-23T08:13:06;99735.72;;;28.05;35.84
39449;BME280;25151;45.566;9.382;2022-07-23T08:16:07;99731.91;;;28.08;35.79
39449;BME280;25151;45.566;9.382;2022-07-23T08:19:08;99743.72;;;28.07;35.51
39449;BME280;25151;45.566;9.382;2022-07-23T08:22:09;99735.41;;;27.98;35.82
39449;BME280;25151;45.566;9.382;2022-07-23T08:25:16;99730.81;;;28.00;35.29
39449;BME280;25151;45.566;9.382;2022-07-23T08:28:23;99731.38;;;28.10;35.47
39449;BME280;25151;45.566;9.382;2022-07-23T08:31:23;99730.09;;;28.11;35.49
39449;BME280;25151;45.566;9.382;2022-07-23T08:34:24;99732.88;;;28.00;35.56
39449;BME280;25151;45.566;9.382;2022-07-23T08:37:25;99738.78;;;28.02;35.53
39449;BME280;25151;45.566;9.382;2022-07-23T08:40:30;99742.09;;;27.94;35.63
39449;BME280;25151;45.566;9.382;2022-07-23T08:43:32;99731.81;;;27.97;35.73
39449;BME280;25151;45.566;9.382;2022-07-23T08:46:35;99726.47;;;28.05;35.71
39449;BME280;25151;45.566;9.382;2022-07-23T08:50:00;99725.63;;;27.99;35.55
39449;BME280;25151;45.566;9.382;2022-07-23T08:53:05;99728.47;;;27.99;35.57
39449;BME280;25151;45.566;9.382;2022-07-23T08:56:14;99719.25;;;28.04;35.60
39449;BME280;25151;45.566;9.382;2022-07-23T09:03:00;99735.75;;;28.11;35.25
39449;BME280;25151;45.566;9.382;2022-07-23T09:06:01;99719.50;;;28.06;35.52
39449;BME280;25151;45.566;9.382;2022-07-23T09:09:17;99725.91;;;28.01;35.05
39449;BME280;25151;45.566;9.382;2022-07-23T09:19:51;99721.00;;;27.96;34.76
39449;BME280;25151;45.566;9.382;2022-07-23T09:22:51;99718.19;;;28.01;34.82
39449;BME280;25151;45.566;9.382;2022-07-23T09:25:58;99715.81;;;27.94;35.11
39449;BME280;25151;45.566;9.382;2022-07-23T09:29:20;99712.47;;;27.96;34.66
39449;BME280;25151;45.566;9.382;2022-07-23T09:32:28;99714.28;;;27.99;34.94
39449;BME280;25151;45.566;9.382;2022-07-23T09:35:48;99709.88;;;28.29;34.87
39449;BME280;25151;45.566;9.382;2022-07-23T09:38:50;99712.03;;;28.46;34.18
39449;BME280;25151;45.566;9.382;2022-07-23T09:41:51;99701.78;;;28.54;34.66
39449;BME280;25151;45.566;9.382;2022-07-23T09:44:55;99699.75;;;28.60;35.01
39449;BME280;25151;45.566;9.382;2022-07-23T09:48:11;99700.81;;;28.68;35.32
39449;BME280;25151;45.566;9.382;2022-07-23T09:51:14;99706.25;;;28.72;35.18
39449;BME280;25151;45.566;9.382;2022-07-23T09:54:24;99700.34;;;28.75;35.50
39449;BME280;25151;45.566;9.382;2022-07-23T09:57:27;99702.66;;;28.77;35.60
39449;BME280;25151;45.566;9.382;2022-07-23T10:00:30;99698.03;;;28.79;36.11
39449;BME280;25151;45.566;9.382;2022-07-23T10:03:32;99699.06;;;28.82;36.16
39449;BME280;25151;45.566;9.382;2022-07-23T10:06:36;99700.09;;;28.84;36.27
39449;BME280;25151;45.566;9.382;2022-07-23T10:09:40;99701.16;;;28.87;36.58
39449;BME280;25151;45.566;9.382;2022-07-23T10:12:46;99699.34;;;28.89;36.69
39449;BME280;25151;45.566;9.382;2022-07-23T10:16:09;99689.03;;;28.92;36.56
39449;BME280;25151;45.566;9.382;2022-07-23T10:19:33;99694.97;;;28.94;36.98
39449;BME280;25151;45.566;9.382;2022-07-23T10:22:42;99691.63;;;28.96;37.07
39449;BME280;25151;45.566;9.382;2022-07-23T10:29:12;99699.94;;;28.99;38.05
39449;BME280;25151;45.566;9.382;2022-07-23T10:36:02;99687.81;;;29.04;38.17
39449;BME280;25151;45.566;9.382;2022-07-23T10:39:26;99677.22;;;29.05;38.63
39449;BME280;25151;45.566;9.382;2022-07-23T10:42:34;99678.00;;;29.05;38.49
39449;BME280;25151;45.566;9.382;2022-07-23T10:45:36;99667.41;;;29.06;39.08
39449;BME280;25151;45.566;9.382;2022-07-23T10:48:38;99664.84;;;29.08;38.84
39449;BME280;25151;45.566;9.382;2022-07-23T10:51:39;99664.34;;;29.09;38.98
39449;BME280;25151;45.566;9.382;2022-07-23T10:58:10;99657.38;;;29.10;39.17
39449;BME280;25151;45.566;9.382;2022-07-23T11:01:36;99651.44;;;29.14;39.62
39449;BME280;25151;45.566;9.382;2022-07-23T11:04:52;99647.06;;;29.13;39.30
39449;BME280;25151;45.566;9.382;2022-07-23T11:11:09;99637.50;;;29.16;39.48
39449;BME280;25151;45.566;9.382;2022-07-23T11:14:10;99631.84;;;29.16;39.56
39449;BME280;25151;45.566;9.382;2022-07-23T11:17:19;99636.50;;;29.19;40.02
39449;BME280;25151;45.566;9.382;2022-07-23T11:20:22;99635.72;;;29.19;39.99
39449;BME280;25151;45.566;9.382;2022-07-23T11:27:01;99638.81;;;29.21;40.16
39449;BME280;25151;45.566;9.382;2022-07-23T11:30:02;99633.91;;;29.21;40.08
39449;BME280;25151;45.566;9.382;2022-07-23T11:36:10;99625.66;;;29.23;40.58
39449;BME280;25151;45.566;9.382;2022-07-23T11:39:10;99617.91;;;29.24;40.66
39449;BME280;25151;45.566;9.382;2022-07-23T11:42:19;99625.41;;;29.27;40.63
39449;BME280;25151;45.566;9.382;2022-07-23T11:45:21;99624.63;;;29.26;40.75
39449;BME280;25151;45.566;9.382;2022-07-23T11:48:26;99614.81;;;29.27;40.68
39449;BME280;25151;45.566;9.382;2022-07-23T11:51:28;99619.19;;;29.28;40.74
39449;BME280;25151;45.566;9.382;2022-07-23T11:54:29;99617.13;;;29.29;40.78
39449;BME280;25151;45.566;9.382;2022-07-23T11:57:32;99618.66;;;29.30;40.31
39449;BME280;25151;45.566;9.382;2022-07-23T12:00:34;99611.72;;;29.31;40.31
39449;BME280;25151;45.566;9.382;2022-07-23T12:03:34;99606.03;;;29.31;40.72
39449;BME280;25151;45.566;9.382;2022-07-23T12:06:38;99611.19;;;29.32;40.78
39449;BME280;25151;45.566;9.382;2022-07-23T12:09:44;99606.28;;;29.33;40.54
39449;BME280;25151;45.566;9.382;2022-07-23T12:12:56;99609.41;;;29.35;40.70
39449;BME280;25151;45.566;9.382;2022-07-23T12:15:58;99599.06;;;29.37;40.94
39449;BME280;25151;45.566;9.382;2022-07-23T12:19:02;99593.38;;;29.37;40.68
39449;BME280;25151;45.566;9.382;2022-07-23T12:22:03;99596.22;;;29.37;40.88
39449;BME280;25151;45.566;9.382;2022-07-23T12:28:15;99583.59;;;29.38;40.91
39449;BME280;25151;45.566;9.382;2022-07-23T12:31:27;99579.44;;;29.39;41.00
39449;BME280;25151;45.566;9.382;2022-07-23T12:34:28;99589.50;;;29.40;40.75
39449;BME280;25151;45.566;9.382;2022-07-23T12:37:38;99585.38;;;29.41;40.66
39449;BME280;25151;45.566;9.382;2022-07-23T12:40:58;99585.38;;;29.41;40.82
39449;BME280;25151;45.566;9.382;2022-07-23T12:44:14;99582.78;;;29.44;41.26
39449;BME280;25151;45.566;9.382;2022-07-23T12:47:15;99581.50;;;29.45;41.07
39449;BME280;25151;45.566;9.382;2022-07-23T12:54:05;99572.47;;;29.46;41.18
39449;BME280;25151;45.566;9.382;2022-07-23T12:57:06;99566.25;;;29.48;41.72
39449;BME280;25151;45.566;9.382;2022-07-23T13:00:09;99568.56;;;29.49;41.84
39449;BME280;25151;45.566;9.382;2022-07-23T13:03:30;99567.81;;;29.49;41.75
39449;BME280;25151;45.566;9.382;2022-07-23T13:06:34;99570.91;;;29.51;41.97
39449;BME280;25151;45.566;9.382;2022-07-23T13:09:40;99560.31;;;29.51;41.76
39449;BME280;25151;45.566;9.382;2022-07-23T13:12:41;99572.47;;;29.52;41.64
39449;BME280;25151;45.566;9.382;2022-07-23T13:15:43;99562.63;;;29.53;41.95
39449;BME280;25151;45.566;9.382;2022-07-23T13:18:43;99561.34;;;29.54;41.56
39449;BME280;25151;45.566;9.382;2022-07-23T13:21:45;99564.19;;;29.54;42.00
39449;BME280;25151;45.566;9.382;2022-07-23T13:24:46;99558.50;;;29.54;42.02
39449;BME280;25151;45.566;9.382;2022-07-23T13:27:46;99557.22;;;29.55;41.85
39449;BME280;25151;45.566;9.382;2022-07-23T13:30:48;99558.75;;;29.56;41.92
39449;BME280;25151;45.566;9.382;2022-07-23T13:33:50;99550.25;;;29.56;41.54
39449;BME280;25151;45.566;9.382;2022-07-23T13:36:50;99550.53;;;29.58;41.70
39449;BME280;25151;45.566;9.382;2022-07-23T13:39:51;99542.78;;;29.58;41.79
39449;BME280;25151;45.566;9.382;2022-07-23T13:42:52;99543.03;;;29.60;41.99
39449;BME280;25151;45.566;9.382;2022-07-23T13:45:53;99535.28;;;29.61;41.80
39449;BME280;25151;45.566;9.382;2022-07-23T13:48:54;99530.38;;;29.61;41.78
39449;BME280;25151;45.566;9.382;2022-07-23T13:51:54;99531.16;;;29.62;42.04
39449;BME280;25151;45.566;9.382;2022-07-23T13:54:57;99540.97;;;29.61;42.15
39449;BME280;25151;45.566;9.382;2022-07-23T13:57:58;99532.69;;;29.63;42.05
39449;BME280;25151;45.566;9.382;2022-07-23T14:00:59;99527.78;;;29.63;41.92
39449;BME280;25151;45.566;9.382;2022-07-23T14:03:59;99520.03;;;29.64;41.74
39449;BME280;25151;45.566;9.382;2022-07-23T14:07:01;99525.72;;;29.64;41.85
39449;BME280;25151;45.566;9.382;2022-07-23T14:10:03;99516.16;;;29.67;41.91
39449;BME280;25151;45.566;9.382;2022-07-23T14:13:05;99523.38;;;29.68;41.92
39449;BME280;25151;45.566;9.382;2022-07-23T14:16:05;99511.47;;;29.70;42.24
39449;BME280;25151;45.566;9.382;2022-07-23T14:19:06;99505.03;;;29.69;42.38
39449;BME280;25151;45.566;9.382;2022-07-23T14:22:07;99509.47;;;29.59;43.38
39449;BME280;25151;45.566;9.382;2022-07-23T14:25:09;99504.31;;;29.46;42.40
39449;BME280;25151;45.566;9.382;2022-07-23T14:28:09;99508.22;;;29.26;41.98
39449;BME280;25151;45.566;9.382;2022-07-23T14:31:12;99499.94;;;29.17;41.79
39449;BME280;25151;45.566;9.382;2022-07-23T14:34:12;99500.47;;;29.15;41.29
39449;BME280;25151;45.566;9.382;2022-07-23T14:37:13;99503.56;;;29.12;41.25
39449;BME280;25151;45.566;9.382;2022-07-23T14:40:14;99495.31;;;29.08;40.97
39449;BME280;25151;45.566;9.382;2022-07-23T14:43:14;99502.25;;;29.02;40.33
39449;BME280;25151;45.566;9.382;2022-07-23T14:46:15;99489.88;;;29.05;40.26
39449;BME280;25151;45.566;9.382;2022-07-23T14:49:16;99497.09;;;29.06;40.19
39449;BME280;25151;45.566;9.382;2022-07-23T14:52:17;99485.00;;;29.00;39.86
39449;BME280;25151;45.566;9.382;2022-07-23T14:55:17;99483.41;;;28.93;39.61
39449;BME280;25151;45.566;9.382;2022-07-23T14:58:18;99485.00;;;29.00;39.56
39449;BME280;25151;45.566;9.382;2022-07-23T15:01:19;99480.63;;;28.99;39.66
39449;BME280;25151;45.566;9.382;2022-07-23T15:04:20;99484.69;;;28.86;39.58
39449;BME280;25151;45.566;9.382;2022-07-23T15:07:24;99478.75;;;28.90;39.07
39449;BME280;25151;45.566;9.382;2022-07-23T15:10:34;99471.78;;;28.85;39.21
39449;BME280;25151;45.566;9.382;2022-07-23T15:13:37;99475.91;;;28.90;39.14
39449;BME280;25151;45.566;9.382;2022-07-23T15:16:38;99480.31;;;28.85;39.12
39449;BME280;25151;45.566;9.382;2022-07-23T15:19:45;99479.00;;;28.86;38.76
39449;BME280;25151;45.566;9.382;2022-07-23T15:22:45;99478.75;;;28.84;38.73
39449;BME280;25151;45.566;9.382;2022-07-23T15:25:48;99475.13;;;28.78;39.18
39449;BME280;25151;45.566;9.382;2022-07-23T15:28:48;99473.09;;;28.84;39.16
39449;BME280;25151;45.566;9.382;2022-07-23T15:31:49;99476.19;;;28.81;39.00
39449;BME280;25151;45.566;9.382;2022-07-23T15:34:50;99469.72;;;28.80;38.97
39449;BME280;25151;45.566;9.382;2022-07-23T15:37:54;99476.69;;;28.85;38.65
39449;BME280;25151;45.566;9.382;2022-07-23T15:40:59;99468.19;;;28.79;39.00
39449;BME280;25151;45.566;9.382;2022-07-23T15:44:04;99459.69;;;28.79;38.65
39449;BME280;25151;45.566;9.382;2022-07-23T15:47:11;99469.22;;;28.76;38.86
39449;BME280;25151;45.566;9.382;2022-07-23T15:50:12;99467.44;;;28.79;38.77
39449;BME280;25151;45.566;9.382;2022-07-23T15:53:13;99464.06;;;28.80;38.84
39449;BME280;25151;45.566;9.382;2022-07-23T15:56:14;99460.19;;;28.78;38.91
39449;BME280;25151;45.566;9.382;2022-07-23T15:59:14;99460.44;;;28.74;38.59
39449;BME280;25151;45.566;9.382;2022-07-23T16:02:15;99443.94;;;28.67;38.61
39449;BME280;25151;45.566;9.382;2022-07-23T16:05:17;99443.16;;;28.66;38.79
39449;BME280;25151;45.566;9.382;2022-07-23T16:08:20;99448.56;;;28.70;38.88
39449;BME280;25151;45.566;9.382;2022-07-23T16:11:21;99443.16;;;28.72;38.44
39449;BME280;25151;45.566;9.382;2022-07-23T16:14:25;99438.00;;;28.65;37.97
39449;BME280;25151;45.566;9.382;2022-07-23T16:17:28;99434.13;;;28.68;38.42
39449;BME280;25151;45.566;9.382;2022-07-23T16:20:28;99433.38;;;28.67;38.22
39449;BME280;25151;45.566;9.382;2022-07-23T16:23:29;99428.97;;;28.72;38.12
39449;BME280;25151;45.566;9.382;2022-07-23T16:26:39;99431.31;;;28.68;37.91
39449;BME280;25151;45.566;9.382;2022-07-23T16:29:41;99423.28;;;28.66;37.79
39449;BME280;25151;45.566;9.382;2022-07-23T16:32:42;99425.63;;;28.68;37.80
39449;BME280;25151;45.566;9.382;2022-07-23T16:35:43;99424.84;;;28.62;37.95
39449;BME280;25151;45.566;9.382;2022-07-23T16:38:44;99433.63;;;28.64;38.05
39449;BME280;25151;45.566;9.382;2022-07-23T16:41:47;99426.41;;;28.57;38.17
39449;BME280;25151;45.566;9.382;2022-07-23T16:44:48;99434.41;;;28.59;37.68
39449;BME280;25151;45.566;9.382;2022-07-23T16:47:48;99432.34;;;28.59;37.73
39449;BME280;25151;45.566;9.382;2022-07-23T16:50:51;99433.34;;;28.62;37.37
39449;BME280;25151;45.566;9.382;2022-07-23T16:53:57;99427.44;;;28.60;37.16
39449;BME280;25151;45.566;9.382;2022-07-23T16:56:58;99430.00;;;28.58;37.64
39449;BME280;25151;45.566;9.382;2022-07-23T16:59:59;99420.22;;;28.59;37.06
39449;BME280;25151;45.566;9.382;2022-07-23T17:03:00;99426.13;;;28.61;37.43
39449;BME280;25151;45.566;9.382;2022-07-23T17:06:01;99422.25;;;28.58;37.25
39449;BME280;25151;45.566;9.382;2022-07-23T17:09:03;99417.13;;;28.57;37.29
39449;BME280;25151;45.566;9.382;2022-07-23T17:12:04;99425.91;;;28.59;37.12
39449;BME280;25151;45.566;9.382;2022-07-23T17:15:06;99424.59;;;28.60;37.21
39449;BME280;25151;45.566;9.382;2022-07-23T17:18:07;99425.91;;;28.59;36.96
39449;BME280;25151;45.566;9.382;2022-07-23T17:21:07;99430.00;;;28.58;37.47
39449;BME280;25151;45.566;9.382;2022-07-23T17:24:15;99419.69;;;28.55;37.12